Time,TemperatureF,DewpointF,PressureIn,WindDirection,WindDirectionDegrees,WindSpeedMPH,WindSpeedGustMPH,Humidity,HourlyPrecipIn,Conditions,Clouds,dailyrainin,SoftwareType,DateUTC
2014-09-18 00:06:00,78.6,73.0,29.90,South,183,0.0,1.0,84,0.00,,,0.00,weatherlink.com 1.10,2014-09-18 05:06:00,
2014-09-18 00:21:00,78.6,73.0,29.90,SW,223,0.0,2.0,84,0.00,,,0.00,weatherlink.com 1.10,2014-09-18 05:21:00,
2014-09-18 00:36:00,78.4,74.0,29.90,SW,219,0.0,2.0,85,0.00,,,0.00,weatherlink.com 1.10,2014-09-18 05:36:00,
2014-09-18 00:51:00,78.2,73.0,29.90,WSW,257,1.0,2.0,85,0.00,,,0.00,weatherlink.com 1.10,2014-09-18 05:51:00,
2014-09-18 01:06:00,78.1,74.0,29.91,West,278,0.0,3.0,86,0.00,,,0.00,weatherlink.com 1.10,2014-09-18 06:06:00,
2014-09-18 01:21:00,77.8,74.0,29.89,West,264,0.0,2.0,88,0.00,,,0.00,weatherlink.com 1.10,2014-09-18 06:21:00,
2014-09-18 01:36:00,77.5,74.0,29.89,West,260,0.0,1.0,89,0.00,,,0.00,weatherlink.com 1.10,2014-09-18 06:36:00,
2014-09-18 01:51:00,77.6,74.0,29.89,West,265,0.0,2.0,89,0.00,,,0.00,weatherlink.com 1.10,2014-09-18 06:51:00,
2014-09-18 02:06:00,77.8,74.0,29.89,ENE,72,0.0,1.0,88,0.00,,,0.00,weatherlink.com 1.10,2014-09-18 07:06:00,
2014-09-18 02:21:00,77.4,74.0,29.89,ENE,67,0.0,1.0,89,0.00,,,0.00,weatherlink.com 1.10,2014-09-18 07:21:00,
2014-09-18 02:36:00,77.2,74.0,29.88,SSW,210,0.0,1.0,89,0.00,,,0.00,weatherlink.com 1.10,2014-09-18 07:36:00,
2014-09-18 02:51:00,77.4,74.0,29.88,ENE,63,0.0,1.0,89,0.00,,,0.00,weatherlink.com 1.10,2014-09-18 07:51:00,
2014-09-18 03:06:00,77.0,74.0,29.88,ENE,63,0.0,1.0,91,0.00,,,0.00,weatherlink.com 1.10,2014-09-18 08:06:00,
2014-09-18 03:21:00,77.1,74.0,29.88,ENE,60,0.0,0.0,91,0.00,,,0.00,weatherlink.com 1.10,2014-09-18 08:21:00,
2014-09-18 03:36:00,76.8,74.0,29.88,NE,48,0.0,1.0,91,0.00,,,0.00,weatherlink.com 1.10,2014-09-18 08:36:00,
2014-09-18 03:51:00,77.5,74.0,29.87,East,96,0.0,1.0,88,0.00,,,0.00,weatherlink.com 1.10,2014-09-18 08:51:00,
2014-09-18 04:06:00,76.9,74.0,29.88,East,99,0.0,1.0,90,0.00,,,0.00,weatherlink.com 1.10,2014-09-18 09:06:00,
2014-09-18 04:21:00,77.5,74.0,29.88,ENE,76,0.0,1.0,89,0.00,,,0.00,weatherlink.com 1.10,2014-09-18 09:21:00,
2014-09-18 04:36:00,76.7,74.0,29.88,SW,217,0.0,1.0,91,0.00,,,0.00,weatherlink.com 1.10,2014-09-18 09:36:00,
2014-09-18 04:51:00,76.8,74.0,29.88,SW,219,0.0,1.0,91,0.00,,,0.00,weatherlink.com 1.10,2014-09-18 09:51:00,
2014-09-18 05:06:00,76.9,75.0,29.89,SW,220,0.0,1.0,92,0.00,,,0.00,weatherlink.com 1.10,2014-09-18 10:06:00,
2014-09-18 05:21:00,77.1,75.0,29.89,SSW,198,0.0,1.0,92,0.00,,,0.00,weatherlink.com 1.10,2014-09-18 10:21:00,
2014-09-18 05:36:00,77.2,75.0,29.89,SSW,204,0.0,0.0,92,0.00,,,0.00,weatherlink.com 1.10,2014-09-18 10:36:00,
2014-09-18 05:51:00,77.4,75.0,29.89,SSW,205,0.0,1.0,92,0.00,,,0.00,weatherlink.com 1.10,2014-09-18 10:51:00,
2014-09-18 06:06:00,77.3,75.0,29.89,South,190,0.0,0.0,93,0.00,,,0.00,weatherlink.com 1.10,2014-09-18 11:06:00,
2014-09-18 06:21:00,77.0,75.0,29.89,SE,124,0.0,0.0,94,0.00,,,0.00,weatherlink.com 1.10,2014-09-18 11:21:00,
2014-09-18 06:36:00,77.5,75.0,29.90,WSW,257,0.0,1.0,93,0.00,,,0.00,weatherlink.com 1.10,2014-09-18 11:36:00,
2014-09-18 06:51:00,77.7,76.0,29.91,WSW,256,0.0,1.0,93,0.00,,,0.00,weatherlink.com 1.10,2014-09-18 11:51:00,
2014-09-18 07:06:00,78.0,76.0,29.91,WSW,253,0.0,1.0,92,0.00,,,0.00,weatherlink.com 1.10,2014-09-18 12:06:00,
2014-09-18 07:21:00,77.7,76.0,29.91,SW,223,0.0,1.0,93,0.00,,,0.00,weatherlink.com 1.10,2014-09-18 12:21:00,
2014-09-18 07:36:00,78.5,76.0,29.92,WNW,284,0.0,1.0,92,0.00,,,0.00,weatherlink.com 1.10,2014-09-18 12:36:00,
2014-09-18 07:51:00,79.5,77.0,29.93,ENE,75,0.0,1.0,92,0.00,,,0.00,weatherlink.com 1.10,2014-09-18 12:51:00,
2014-09-18 08:06:00,81.1,77.0,29.93,NE,41,1.0,1.0,88,0.00,,,0.00,weatherlink.com 1.10,2014-09-18 13:06:00,
2014-09-18 08:21:00,82.2,78.0,29.93,ENE,72,0.0,4.0,86,0.00,,,0.00,weatherlink.com 1.10,2014-09-18 13:21:00,
2014-09-18 08:36:00,82.3,77.0,29.93,North,3,1.0,4.0,84,0.00,,,0.00,weatherlink.com 1.10,2014-09-18 13:36:00,
2014-09-18 08:51:00,82.3,77.0,29.93,NE,40,1.0,5.0,85,0.00,,,0.00,weatherlink.com 1.10,2014-09-18 13:51:00,
2014-09-18 09:06:00,82.5,78.0,29.93,NNE,22,2.0,6.0,85,0.00,,,0.00,weatherlink.com 1.10,2014-09-18 14:06:00,
2014-09-18 09:21:00,83.2,77.0,29.93,NNE,32,0.0,5.0,82,0.00,,,0.00,weatherlink.com 1.10,2014-09-18 14:21:00,
2014-09-18 09:36:00,83.3,77.0,29.94,NNE,32,0.0,5.0,82,0.00,,,0.00,weatherlink.com 1.10,2014-09-18 14:36:00,
2014-09-18 09:52:00,83.6,77.0,29.94,ENE,77,1.0,6.0,81,0.00,,,0.00,weatherlink.com 1.10,2014-09-18 14:52:00,
2014-09-18 10:07:00,84.0,77.0,29.94,NE,49,1.0,5.0,79,0.00,,,0.00,weatherlink.com 1.10,2014-09-18 15:07:00,
2014-09-18 10:22:00,84.0,77.0,29.94,NNE,18,0.0,4.0,80,0.00,,,0.00,weatherlink.com 1.10,2014-09-18 15:22:00,
2014-09-18 10:37:00,85.2,77.0,29.93,ENE,63,0.0,5.0,77,0.00,,,0.00,weatherlink.com 1.10,2014-09-18 15:37:00,
2014-09-18 10:52:00,85.9,76.0,29.93,East,86,1.0,4.0,72,0.00,,,0.00,weatherlink.com 1.10,2014-09-18 15:52:00,
2014-09-18 11:07:00,86.3,77.0,29.92,ESE,105,2.0,4.0,74,0.00,,,0.00,weatherlink.com 1.10,2014-09-18 16:07:00,
2014-09-18 11:22:00,86.9,77.0,29.92,NNE,23,1.0,2.0,72,0.00,,,0.00,weatherlink.com 1.10,2014-09-18 16:22:00,
2014-09-18 11:37:00,87.0,77.0,29.91,NNE,23,0.0,3.0,71,0.00,,,0.00,weatherlink.com 1.10,2014-09-18 16:37:00,
2014-09-18 11:52:00,87.4,77.0,29.91,SSE,165,0.0,5.0,70,0.00,,,0.00,weatherlink.com 1.10,2014-09-18 16:52:00,
2014-09-18 12:07:00,88.3,76.0,29.91,East,97,1.0,10.0,66,0.00,,,0.00,weatherlink.com 1.10,2014-09-18 17:07:00,
2014-09-18 12:22:00,88.5,74.0,29.90,SW,221,4.0,8.0,63,0.00,,,0.00,weatherlink.com 1.10,2014-09-18 17:22:00,
2014-09-18 12:37:00,88.5,74.0,29.90,South,175,1.0,6.0,63,0.00,,,0.00,weatherlink.com 1.10,2014-09-18 17:37:00,
2014-09-18 12:52:00,89.0,75.0,29.90,ESE,113,0.0,5.0,64,0.00,,,0.00,weatherlink.com 1.10,2014-09-18 17:52:00,
2014-09-18 13:07:00,88.2,75.0,29.90,SSW,195,1.0,4.0,65,0.00,,,0.00,weatherlink.com 1.10,2014-09-18 18:07:00,
2014-09-18 13:22:00,87.8,76.0,29.89,East,99,0.0,5.0,67,0.00,,,0.00,weatherlink.com 1.10,2014-09-18 18:22:00,
2014-09-18 13:37:00,88.6,75.0,29.89,East,90,1.0,8.0,64,0.00,,,0.00,weatherlink.com 1.10,2014-09-18 18:37:00,
2014-09-18 14:07:00,88.3,74.0,29.88,South,174,3.0,9.0,63,0.00,,,0.00,weatherlink.com 1.10,2014-09-18 19:07:00,
2014-09-18 14:37:00,88.8,76.0,29.87,ESE,113,3.0,9.0,65,0.00,,,0.00,weatherlink.com 1.10,2014-09-18 19:37:00,
2014-09-18 14:52:00,88.7,75.0,29.87,East,93,1.0,7.0,64,0.00,,,0.00,weatherlink.com 1.10,2014-09-18 19:52:00,
2014-09-18 15:07:00,88.3,76.0,29.87,ESE,116,2.0,9.0,66,0.00,,,0.00,weatherlink.com 1.10,2014-09-18 20:07:00,
2014-09-18 15:22:00,87.5,76.0,29.86,ESE,119,2.0,8.0,68,0.00,,,0.00,weatherlink.com 1.10,2014-09-18 20:22:00,
2014-09-18 15:37:00,86.8,76.0,29.86,South,190,1.0,6.0,70,0.00,,,0.00,weatherlink.com 1.10,2014-09-18 20:37:00,
2014-09-18 15:52:00,86.5,74.0,29.85,SE,141,1.0,9.0,67,0.00,,,0.00,weatherlink.com 1.10,2014-09-18 20:52:00,
2014-09-18 16:07:00,86.8,75.0,29.85,ESE,119,0.0,2.0,68,0.00,,,0.00,weatherlink.com 1.10,2014-09-18 21:07:00,
2014-09-18 16:22:00,86.1,76.0,29.85,SE,136,1.0,4.0,71,0.00,,,0.00,weatherlink.com 1.10,2014-09-18 21:22:00,
2014-09-18 16:37:00,86.1,75.0,29.85,East,98,0.0,2.0,69,0.00,,,0.00,weatherlink.com 1.10,2014-09-18 21:37:00,
2014-09-18 16:52:00,85.5,74.0,29.85,SE,139,4.0,4.0,69,0.00,,,0.00,weatherlink.com 1.10,2014-09-18 21:52:00,
2014-09-18 17:07:00,85.3,74.0,29.85,SE,141,1.0,5.0,69,0.00,,,0.00,weatherlink.com 1.10,2014-09-18 22:07:00,
2014-09-18 17:22:00,85.3,75.0,29.85,SSE,150,3.0,8.0,71,0.00,,,0.00,weatherlink.com 1.10,2014-09-18 22:22:00,
2014-09-18 17:37:00,83.7,73.0,29.86,East,82,2.0,7.0,70,0.00,,,0.00,weatherlink.com 1.10,2014-09-18 22:37:00,
2014-09-18 18:07:00,79.5,70.0,29.86,SE,138,2.0,10.0,73,0.00,,,0.00,weatherlink.com 1.10,2014-09-18 23:07:00,
2014-09-18 18:22:00,78.9,69.0,29.87,SSE,150,0.0,3.0,72,0.00,,,0.00,weatherlink.com 1.10,2014-09-18 23:22:00,
2014-09-18 18:37:00,79.6,70.0,29.87,ESE,106,0.0,1.0,72,0.00,,,0.00,weatherlink.com 1.10,2014-09-18 23:37:00,
2014-09-18 18:52:00,79.4,70.0,29.87,ESE,103,0.0,1.0,73,0.00,,,0.00,weatherlink.com 1.10,2014-09-18 23:52:00,
2014-09-18 19:07:00,80.6,70.0,29.87,East,89,0.0,1.0,71,0.00,,,0.00,weatherlink.com 1.10,2014-09-19 00:07:00,
2014-09-18 19:22:00,81.1,71.0,29.87,East,101,0.0,1.0,72,0.00,,,0.00,weatherlink.com 1.10,2014-09-19 00:22:00,